Main page
METAR-TAF:

METAR-TAF

Airports :

Málaga Airport

Málaga, Spain

latitude: 36-40N, longitude: 004-29W, elevation: 16 m

Current weather observation

The report was made 40 minutes ago, at 19:30 UTC
Wind 8 kt from the East
Temperature 13°C
Humidity 72%
Pressure 1024 hPa
Visibility 10 km or more
Scattered clouds at a height of 2800 ft
Broken clouds at a height of 5000 ft

METAR: LEMG 211930Z 09008KT 9999 SCT028 BKN050 13/08 Q1024 NOSIG

Time: 21:10 (20:10 UTC)

Forecast

The report was made 3 hours and 10 minutes ago, at 17:00 UTC
Forecast valid from 21 at 18 UTC to 22 at 18 UTC
Wind 5 kt from the Southeast
Visibility 10 km or more
Few clouds at a height of 3000 ft
Scattered clouds at a height of 4000 ft
Becoming
from 21 at 20 UTC to 21 at 23 UTC
Wind 16 kt from the Southeast
Probability 30% :
Temporary
from 22 at 02 UTC to 22 at 15 UTC
Wind 15 kt from the Southeast with gusts up to 25 kt

TAF: LEMG 211700Z 2118/2218 13005KT 9999 FEW030 SCT040 TX15/2214Z TN11/2206Z BECMG 2120/2123 13016KT PROB30 TEMPO 2202/2215 13015G25KT

Weather observations and forecasts of more than 4000 airports (METAR and TAF reports).

The available stations are represented by yellow and red dots on the map.

Hover mouse over dot to see the name of the station.

Then click to see weather observations and forecasts.

To change the map : click on the green buttons with a black cross to zoom in, on the green button with a dash to zoom out, or on the green arrows for adjacent maps.


METAR-TAF: